Terminal Aerodrome Forecast
Issued by NWS Blacksburg, VA

Home | Current Version | Previous Version | Text Only | Print | Product List | Glossary On
Versions: 1 2 3 4 5 6 7 8 9 10 11 12 13 14 15 16 17 18 19 20 21 22 23 24 25 26
000
FTUS41 KRNK 232341
TAFDAN
TAF
KDAN 232341Z 2400/2424 00000KT P6SM FEW080 OVC110
     FM241700 04009KT P6SM BKN022 OVC035
     FM241900 03011KT P6SM OVC025
     FM242200 01008KT 5SM -RA FEW010 OVC018=

USA.gov is the U.S. government's official web portal to all federal, state and local government web resources and services.